ENBR

Bergen/Flesland

Airport
ICAO code
ENBR
Summary
ICAO Region
EUR
ICAO Territory
Location

Bergen,

Elevation
170 ft
Coordinates
60° 17' 36" N , 5° 13' 5" E
KCC
Airport BS
Non Avian Wildlife Hazards to Aircraft
Airport WX
Low Level Turbulence
Metar
Observation
ENBR 261520Z 31006KT 280V350 9999 FEW007 SCT017 BKN025 10/06 Q0989 TEMPO SHRA RMK WIND 1200FT 29010KT
Station
Bergen / Flesland
Date/Time
2022-09-26 15:20:00
Wind direction
310°
Wind speed
06 kts
Lowest cloud amount
few clouds
Temperature
10°C
Dew point
6°C
Humidity
76%
QNH
989 hPa
Weather condition
n/a

Description

International airport 8 nm south west of Bergen.

Climatology

Temperate Marine climate/Oceanic climate (Köppen climate classification Cfb). Moderately cool summer and comparatively warm winter with a temperature range of only 14°C. Prevailing south-westerly winds from the Atlantic Ocean. Despite its latitude, Bergen is one of the warmest cities in Norway because of the influence of the Atlantic Gulf Stream current.

Runways

Designator Length Width Surface Rops
17/35 2990 45 ASP Yes/Yes

Airport map

Aerial View

SKYbrary Partners:

Safety knowledge contributed by: